Fort Myers Beach, Florida
Current Conditions -  °F | °C
As of 8:53 AM on Thursday 30 Oct 2014 (Local Time) from KFMY Reporting Station
Clear Clear  
Wind Chill: 70°   Ceiling: Unl
Heat Index: 70°   Visibility: 10mi
Dew Point: 67°   Wind: 3mph
Humidity: 90%   Direction: 100°E
Pressure: 29.97"   Gusts: NA
Location:  26.45°N, 81.94°W
Report Text: KFMY 301253Z 10003KT 10SM CLR 21/19 A2997 RMK AO2 SLP151 T02110194
Loading
Personal Weather Stations






























Interactive Weather Map New forecast layout! Learn more

10-Day Weather Forecast

Advertisements
Track Severe Weather on mobile